Time;durP1;ratioP1;P1;durP2;ratioP2;P2;SDS_P1;SDS_P2;PMS_P1;PMS_P2;Temp;Humidity;BMP_temperature;BMP_pressure;BME280_temperature;BME280_humidity;BME280_pressure;Samples;Min_cycle;Max_cycle;Signal;HPM_P1;HPM_P2
2021/04/06 00:02:07;;;;;;;12.93;1.88;;;2.50;90.40;;;;;;5015115;28;21624;-51
2021/04/06 00:04:35;;;;;;;11.77;1.70;;;2.50;90.40;;;;;;5029794;28;20410;-50
2021/04/06 00:07:05;;;;;;;9.77;1.73;;;2.40;90.40;;;;;;5026932;28;20061;-50
2021/04/06 00:09:33;;;;;;;11.18;1.77;;;2.40;90.50;;;;;;5030540;28;20037;-50
2021/04/06 00:12:03;;;;;;;6.40;1.60;;;2.40;90.60;;;;;;5023224;28;20049;-49
2021/04/06 00:14:31;;;;;;;12.95;1.95;;;2.30;90.60;;;;;;5025906;28;20101;-53
2021/04/06 00:17:00;;;;;;;5.80;1.27;;;2.30;90.80;;;;;;5026929;28;20072;-52
2021/04/06 00:19:28;;;;;;;9.05;1.67;;;2.30;90.80;;;;;;5029706;28;20493;-50
2021/04/06 00:21:58;;;;;;;12.45;1.83;;;2.20;90.80;;;;;;5013151;28;20038;-53
2021/04/06 00:24:28;;;;;;;8.35;1.52;;;2.20;90.80;;;;;;5020529;28;20124;-51
2021/04/06 00:27:03;;;;;;;8.57;1.60;;;2.20;90.80;;;;;;5030337;28;20445;-51
2021/04/06 00:29:34;;;;;;;8.30;1.73;;;2.20;90.90;;;;;;5022889;28;20049;-51
2021/04/06 00:32:01;;;;;;;7.55;1.30;;;2.20;90.90;;;;;;5029979;28;20103;-50
2021/04/06 00:34:29;;;;;;;9.82;1.85;;;2.10;90.90;;;;;;5031040;28;20034;-48
2021/04/06 00:37:02;;;;;;;11.57;1.70;;;2.10;91.00;;;;;;5009952;28;20498;-49
2021/04/06 00:39:30;;;;;;;7.38;1.70;;;2.20;91.10;;;;;;5029431;28;20042;-50
2021/04/06 00:42:11;;;;;;;12.25;1.98;;;2.10;90.90;;;;;;5017891;28;20038;-51
2021/04/06 00:44:43;;;;;;;6.78;1.73;;;2.10;91.00;;;;;;5027237;28;20120;-52
2021/04/06 00:47:12;;;;;;;6.80;0.98;;;2.10;91.00;;;;;;5020089;28;20056;-52
2021/04/06 00:49:40;;;;;;;7.28;1.30;;;2.10;91.00;;;;;;5026838;28;20042;-49
2021/04/06 00:52:06;;;;;;;9.68;1.52;;;2.10;90.90;;;;;;5017171;28;20046;-49
2021/04/06 00:54:39;;;;;;;5.05;1.30;;;2.10;90.90;;;;;;5025020;28;20137;-53
2021/04/06 00:57:08;;;;;;;6.72;1.40;;;2.00;90.80;;;;;;5030285;28;20107;-51
2021/04/06 00:59:35;;;;;;;6.70;1.27;;;2.00;90.90;;;;;;5022673;28;20045;-52
2021/04/06 01:02:04;;;;;;;8.60;2.03;;;2.00;91.00;;;;;;5029499;28;20099;-50
2021/04/06 01:04:33;;;;;;;6.57;1.38;;;2.00;91.00;;;;;;5028603;28;20091;-53
2021/04/06 01:07:02;;;;;;;6.75;1.30;;;2.00;91.00;;;;;;5026613;28;20494;-54
2021/04/06 01:09:33;;;;;;;6.35;1.35;;;2.00;91.00;;;;;;5025141;28;20077;-52
2021/04/06 01:12:01;;;;;;;6.88;1.48;;;2.00;91.00;;;;;;5027087;28;20033;-53
2021/04/06 01:14:30;;;;;;;8.27;1.38;;;2.10;91.00;;;;;;5024348;28;20034;-52
2021/04/06 01:16:58;;;;;;;5.47;1.17;;;2.10;91.00;;;;;;5027176;28;20042;-52
2021/04/06 01:19:27;;;;;;;7.05;1.20;;;2.10;91.00;;;;;;5024806;28;20045;-53
2021/04/06 01:21:55;;;;;;;8.68;1.33;;;2.10;91.00;;;;;;5033219;28;20051;-51
2021/04/06 01:24:21;;;;;;;8.73;1.48;;;2.20;91.00;;;;;;5030640;28;20445;-53
2021/04/06 01:26:50;;;;;;;7.70;1.70;;;2.20;91.00;;;;;;5032164;28;20482;-54
2021/04/06 01:29:16;;;;;;;7.45;1.63;;;2.20;91.00;;;;;;5031065;28;20461;-53
2021/04/06 01:31:43;;;;;;;10.48;1.70;;;2.20;90.80;;;;;;5033058;28;20095;-53
2021/04/06 01:34:13;;;;;;;10.98;1.67;;;2.20;90.70;;;;;;5022675;28;20118;-52
2021/04/06 01:36:39;;;;;;;9.85;1.65;;;2.20;90.60;;;;;;5024815;28;20099;-53
2021/04/06 01:39:05;;;;;;;12.75;2.45;;;2.20;90.50;;;;;;5022345;28;20050;-53
2021/04/06 01:41:31;;;;;;;11.07;2.33;;;2.10;90.60;;;;;;5030057;28;20048;-53
2021/04/06 01:43:58;;;;;;;9.25;1.67;;;2.10;90.60;;;;;;5031202;28;20071;-49
2021/04/06 01:46:38;;;;;;;12.93;2.28;;;2.10;90.60;;;;;;5032348;28;20391;-52
2021/04/06 01:49:04;;;;;;;10.10;2.25;;;2.00;90.60;;;;;;5032375;28;20041;-50
2021/04/06 01:51:30;;;;;;;10.30;1.75;;;2.00;90.70;;;;;;5033069;28;20453;-53
2021/04/06 01:53:56;;;;;;;10.68;1.70;;;2.00;90.70;;;;;;5027390;28;20087;-50
2021/04/06 01:56:29;;;;;;;10.63;1.70;;;2.00;90.70;;;;;;5020597;28;20169;-51
2021/04/06 01:59:00;;;;;;;13.20;2.03;;;2.00;90.70;;;;;;5023485;28;20064;-52
2021/04/06 02:01:27;;;;;;;11.27;1.95;;;2.00;90.70;;;;;;5024454;28;20044;-50
2021/04/06 02:03:58;;;;;;;11.68;2.25;;;2.00;90.70;;;;;;5029694;28;20048;-50
2021/04/06 02:06:33;;;;;;;14.30;2.63;;;2.00;90.70;;;;;;5031068;28;20132;-50
2021/04/06 02:09:00;;;;;;;9.82;1.80;;;2.10;90.60;;;;;;5014149;28;20045;-49
2021/04/06 02:11:32;;;;;;;13.23;2.72;;;2.10;90.50;;;;;;5026976;28;20042;-50
2021/04/06 02:14:20;;;;;;;10.80;2.08;;;2.10;90.40;;;;;;5030818;28;20040;-51
2021/04/06 02:17:04;;;;;;;9.15;2.25;;;2.10;90.40;;;;;;5029546;28;20065;-49
2021/04/06 02:19:39;;;;;;;13.02;2.40;;;2.10;90.30;;;;;;5045632;28;20053;-53
2021/04/06 02:22:10;;;;;;;16.50;2.60;;;2.10;90.20;;;;;;5031727;28;20038;-51
2021/04/06 02:24:41;;;;;;;11.77;2.28;;;2.20;90.10;;;;;;5031179;28;20053;-50
2021/04/06 02:27:23;;;;;;;17.52;2.35;;;2.10;90.00;;;;;;5030800;28;20034;-53
2021/04/06 02:29:55;;;;;;;11.93;1.92;;;2.10;90.00;;;;;;5028905;28;20049;-50
2021/04/06 02:32:23;;;;;;;11.90;2.08;;;2.20;90.00;;;;;;5042596;28;20045;-53
2021/04/06 02:34:52;;;;;;;12.02;2.53;;;2.10;90.00;;;;;;5041022;28;20508;-53
2021/04/06 02:37:20;;;;;;;16.92;2.60;;;2.10;90.00;;;;;;5030917;28;20108;-53
2021/04/06 02:39:48;;;;;;;20.30;2.70;;;2.10;90.00;;;;;;5026172;28;20066;-53
2021/04/06 02:42:27;;;;;;;17.60;2.90;;;2.10;89.90;;;;;;5020414;28;20050;-49
2021/04/06 02:44:56;;;;;;;17.67;2.88;;;2.10;89.70;;;;;;5031794;28;20127;-53
2021/04/06 02:47:24;;;;;;;15.15;2.63;;;2.10;89.80;;;;;;5029581;28;20534;-54
2021/04/06 02:49:51;;;;;;;20.73;2.85;;;2.10;89.80;;;;;;5028111;28;20516;-53
2021/04/06 02:52:16;;;;;;;16.52;2.78;;;2.20;89.90;;;;;;5038816;28;20045;-54
2021/04/06 02:54:42;;;;;;;17.90;2.78;;;2.20;89.80;;;;;;5020224;28;20069;-52
2021/04/06 02:57:23;;;;;;;20.38;2.88;;;2.20;89.60;;;;;;5030436;28;20033;-53
2021/04/06 02:59:49;;;;;;;19.13;3.58;;;2.20;89.40;;;;;;5029571;28;20037;-53
2021/04/06 03:02:15;;;;;;;25.90;3.28;;;2.20;89.20;;;;;;5019037;28;20053;-52
2021/04/06 03:04:42;;;;;;;27.13;3.72;;;2.30;89.30;;;;;;5030242;28;20037;-53
2021/04/06 03:07:23;;;;;;;24.92;3.83;;;2.30;89.40;;;;;;5030693;28;21010;-53
2021/04/06 03:09:57;;;;;;;21.50;3.50;;;2.30;89.50;;;;;;5031235;28;20052;-53
2021/04/06 03:12:27;;;;;;;23.63;4.05;;;2.20;89.60;;;;;;5019053;28;20049;-52
2021/04/06 03:14:54;;;;;;;15.63;3.83;;;2.20;89.70;;;;;;5010131;28;20065;-53
2021/04/06 03:17:19;;;;;;;14.90;3.05;;;2.20;89.70;;;;;;5016105;28;20123;-52
2021/04/06 03:19:45;;;;;;;19.13;2.90;;;2.10;89.80;;;;;;5021361;28;20731;-49
2021/04/06 03:22:15;;;;;;;15.40;3.17;;;2.20;89.80;;;;;;5030371;28;20120;-52
2021/04/06 03:24:41;;;;;;;19.10;3.53;;;2.10;89.90;;;;;;5012286;28;20042;-53
2021/04/06 03:27:08;;;;;;;20.65;3.38;;;2.10;89.80;;;;;;5020623;28;20482;-52
2021/04/06 03:29:34;;;;;;;13.80;3.25;;;2.10;89.70;;;;;;5026116;28;20046;-49
2021/04/06 03:32:02;;;;;;;18.13;2.80;;;2.10;89.60;;;;;;5021618;28;20490;-50
2021/04/06 03:34:33;;;;;;;19.45;3.13;;;2.00;89.60;;;;;;5026781;28;20045;-51
2021/04/06 03:37:01;;;;;;;18.63;2.80;;;2.00;90.00;;;;;;5031577;28;20045;-52
2021/04/06 03:39:27;;;;;;;16.58;2.80;;;2.00;89.40;;;;;;5025171;28;20076;-54
2021/04/06 03:41:53;;;;;;;15.63;2.45;;;2.00;88.70;;;;;;5026557;28;20070;-51
2021/04/06 03:44:26;;;;;;;15.20;3.20;;;2.00;88.40;;;;;;5023727;28;20088;-53
2021/04/06 03:46:59;;;;;;;15.52;3.30;;;2.00;88.30;;;;;;5024278;28;20112;-52
2021/04/06 03:49:27;;;;;;;20.13;3.83;;;2.00;88.20;;;;;;5012522;28;20049;-52
2021/04/06 03:51:59;;;;;;;17.15;3.00;;;2.00;88.10;;;;;;5021700;28;20125;-52
2021/04/06 03:54:47;;;;;;;20.07;3.50;;;1.90;87.80;;;;;;5012818;28;20042;-52
2021/04/06 03:57:44;;;;;;;14.90;2.75;;;1.90;87.70;;;;;;5019334;28;20124;-52
2021/04/06 04:00:11;;;;;;;17.98;2.70;;;1.90;87.70;;;;;;5018889;28;20038;-51
2021/04/06 04:02:38;;;;;;;18.23;3.22;;;1.90;87.60;;;;;;5027048;28;20044;-53
2021/04/06 04:05:04;;;;;;;15.90;2.38;;;1.90;87.50;;;;;;5014967;28;20112;-53
2021/04/06 04:07:33;;;;;;;15.90;2.60;;;1.90;88.00;;;;;;5016226;28;20068;-50
2021/04/06 04:09:59;;;;;;;17.80;2.97;;;1.90;87.50;;;;;;5030000;28;20049;-49
2021/04/06 04:12:28;;;;;;;15.73;2.88;;;1.90;87.70;;;;;;5011462;28;20448;-49
2021/04/06 04:14:57;;;;;;;24.20;3.92;;;1.90;87.60;;;;;;5018692;28;20041;-52
2021/04/06 04:17:23;;;;;;;17.90;2.45;;;1.90;87.60;;;;;;5026112;28;20065;-52
2021/04/06 04:19:48;;;;;;;16.10;2.60;;;2.00;87.50;;;;;;5029559;28;20453;-50
2021/04/06 04:22:14;;;;;;;19.38;3.00;;;2.00;87.40;;;;;;5029369;28;20140;-50
2021/04/06 04:24:40;;;;;;;13.30;2.42;;;2.00;87.90;;;;;;5025184;28;20045;-50
2021/04/06 04:27:06;;;;;;;16.02;2.88;;;2.00;87.40;;;;;;5019455;28;20058;-49
2021/04/06 04:29:32;;;;;;;18.58;3.28;;;2.00;87.50;;;;;;5039054;28;20505;-50
2021/04/06 04:32:11;;;;;;;18.02;2.85;;;2.00;87.70;;;;;;5011278;28;20056;-50
2021/04/06 04:34:37;;;;;;;13.15;2.42;;;2.00;87.80;;;;;;5040553;28;20046;-51
2021/04/06 04:37:02;;;;;;;16.05;2.40;;;1.90;87.70;;;;;;5010779;28;20407;-53
2021/04/06 04:39:28;;;;;;;11.25;2.75;;;1.90;87.60;;;;;;5026511;28;20037;-50
2021/04/06 04:41:54;;;;;;;16.70;2.80;;;1.90;87.70;;;;;;5036058;28;20091;-51
2021/04/06 04:44:19;;;;;;;13.38;2.50;;;1.90;87.70;;;;;;5034741;28;20479;-51
2021/04/06 04:46:45;;;;;;;13.07;2.38;;;1.90;87.60;;;;;;5033425;28;20045;-54
2021/04/06 04:49:11;;;;;;;17.50;3.00;;;1.90;88.00;;;;;;5038001;28;20552;-51
2021/04/06 04:51:37;;;;;;;21.67;2.60;;;1.90;87.80;;;;;;5023316;28;20050;-52
2021/04/06 04:54:03;;;;;;;15.50;2.53;;;1.90;88.00;;;;;;5030340;28;20593;-51
2021/04/06 04:56:29;;;;;;;12.32;2.00;;;1.80;88.00;;;;;;5023772;28;20099;-50
2021/04/06 04:58:55;;;;;;;13.25;2.58;;;1.80;88.00;;;;;;5020209;28;20041;-51
2021/04/06 05:01:21;;;;;;;17.17;2.70;;;1.80;88.10;;;;;;5045843;28;20092;-53
2021/04/06 05:03:47;;;;;;;12.38;2.50;;;1.80;88.00;;;;;;5027477;28;20521;-53
2021/04/06 05:06:13;;;;;;;14.35;2.80;;;1.80;88.00;;;;;;5036941;28;20037;-50
2021/04/06 05:08:39;;;;;;;18.25;2.53;;;1.70;87.80;;;;;;5020518;28;20113;-52
2021/04/06 05:11:04;;;;;;;12.93;2.20;;;1.70;87.70;;;;;;5039064;28;20045;-50
2021/04/06 05:13:30;;;;;;;13.82;2.40;;;1.70;88.00;;;;;;5030549;28;20418;-50
2021/04/06 05:15:56;;;;;;;9.18;1.90;;;1.60;88.20;;;;;;5034183;28;20041;-50
2021/04/06 05:18:21;;;;;;;12.70;2.45;;;1.60;88.00;;;;;;5023889;28;20042;-50
2021/04/06 05:20:47;;;;;;;13.50;2.03;;;1.60;88.00;;;;;;5032411;28;20483;-53
2021/04/06 05:23:13;;;;;;;9.55;1.88;;;1.60;88.20;;;;;;5032989;28;20492;-53
2021/04/06 05:25:38;;;;;;;11.70;2.90;;;1.60;88.10;;;;;;5027939;28;20034;-50
2021/04/06 05:28:05;;;;;;;11.18;2.05;;;1.60;88.00;;;;;;5026381;28;20046;-53
2021/04/06 05:30:30;;;;;;;16.70;2.30;;;1.70;87.50;;;;;;5024025;28;20099;-50
2021/04/06 05:32:56;;;;;;;14.60;1.83;;;1.70;87.30;;;;;;5026231;28;20049;-53
2021/04/06 05:35:21;;;;;;;14.57;2.35;;;1.80;87.50;;;;;;5031822;28;20044;-51
2021/04/06 05:37:47;;;;;;;12.45;2.10;;;1.80;87.10;;;;;;5031658;28;20037;-50
2021/04/06 05:40:13;;;;;;;15.93;2.28;;;1.90;86.80;;;;;;5024138;28;20524;-50
2021/04/06 05:42:39;;;;;;;12.13;2.40;;;1.90;86.80;;;;;;5021534;28;20037;-52
2021/04/06 05:45:06;;;;;;;17.95;2.30;;;1.90;86.60;;;;;;5028476;28;20054;-51
2021/04/06 05:47:39;;;;;;;14.88;2.10;;;1.90;86.60;;;;;;5022049;28;20494;-53
2021/04/06 05:50:06;;;;;;;11.95;2.08;;;1.90;86.70;;;;;;5021427;28;20062;-51
2021/04/06 05:52:33;;;;;;;15.02;2.35;;;2.10;86.60;;;;;;5025877;28;20068;-52
2021/04/06 05:55:00;;;;;;;12.30;2.17;;;2.20;86.20;;;;;;5021491;28;20036;-52
2021/04/06 05:57:26;;;;;;;14.13;2.72;;;2.40;85.60;;;;;;5028091;28;20029;-51
2021/04/06 05:59:52;;;;;;;16.35;2.40;;;2.60;84.90;;;;;;5030576;28;20503;-53
2021/04/06 06:02:18;;;;;;;12.52;2.00;;;2.70;84.60;;;;;;5024604;28;20090;-52
2021/04/06 06:04:43;;;;;;;16.85;2.40;;;2.70;84.40;;;;;;5022155;28;20041;-49
2021/04/06 06:07:11;;;;;;;16.40;2.90;;;2.70;84.50;;;;;;5020273;28;20068;-49
2021/04/06 06:09:37;;;;;;;14.93;2.22;;;2.60;84.10;;;;;;5023456;28;20042;-49
2021/04/06 06:12:14;;;;;;;14.07;1.90;;;2.50;84.80;;;;;;5030891;28;20049;-49
2021/04/06 06:14:44;;;;;;;6.30;1.40;;;2.40;85.20;;;;;;5016553;28;20508;-50
2021/04/06 06:17:21;;;;;;;12.13;2.10;;;2.40;85.30;;;;;;5019017;28;20125;-50
2021/04/06 06:19:59;;;;;;;12.10;2.42;;;2.30;85.40;;;;;;5019302;28;20049;-49
2021/04/06 06:22:26;;;;;;;9.35;2.17;;;2.30;85.60;;;;;;5017828;28;20038;-51
2021/04/06 06:25:07;;;;;;;11.57;2.20;;;2.30;85.70;;;;;;5025402;28;20049;-49
2021/04/06 06:27:42;;;;;;;9.52;1.85;;;2.30;85.90;;;;;;5016303;28;20049;-49
2021/04/06 06:30:38;;;;;;;13.07;2.00;;;2.20;86.00;;;;;;5017005;28;20107;-50
2021/04/06 06:33:16;;;;;;;9.57;2.10;;;2.30;86.00;;;;;;5018464;28;20048;-49
2021/04/06 06:35:44;;;;;;;12.38;2.05;;;2.50;85.80;;;;;;5024701;28;20100;-54
2021/04/06 06:38:18;;;;;;;11.90;1.90;;;2.70;85.10;;;;;;5015818;28;20069;-53
2021/04/06 06:40:45;;;;;;;14.32;2.53;;;2.90;84.70;;;;;;5013920;28;20418;-52
2021/04/06 06:43:12;;;;;;;14.48;2.30;;;2.90;84.30;;;;;;5013592;28;20068;-51
2021/04/06 06:45:38;;;;;;;10.15;2.20;;;3.10;84.40;;;;;;5016212;28;20064;-50
2021/04/06 06:48:04;;;;;;;11.77;2.10;;;3.20;84.20;;;;;;5016152;28;20474;-52
2021/04/06 06:50:30;;;;;;;14.20;2.30;;;3.20;83.30;;;;;;5035436;28;20041;-50
2021/04/06 06:52:58;;;;;;;12.80;2.55;;;3.20;83.10;;;;;;5016438;28;20099;-51
2021/04/06 06:55:25;;;;;;;12.00;2.25;;;3.20;82.70;;;;;;5018919;28;20048;-52
2021/04/06 06:58:05;;;;;;;12.32;2.15;;;3.20;81.90;;;;;;5013291;28;20068;-53
2021/04/06 07:00:31;;;;;;;10.80;2.33;;;3.30;81.50;;;;;;5018398;28;20045;-51
2021/04/06 07:02:57;;;;;;;11.80;1.90;;;3.30;81.30;;;;;;5011481;28;20183;-53
2021/04/06 07:05:24;;;;;;;9.88;1.90;;;3.30;81.00;;;;;;5003731;28;20045;-52
2021/04/06 07:08:08;;;;;;;8.65;2.17;;;3.20;81.10;;;;;;5021381;28;20037;-48
2021/04/06 07:10:35;;;;;;;14.38;2.30;;;3.10;81.30;;;;;;5008441;28;20046;-50
2021/04/06 07:13:20;;;;;;;8.32;1.65;;;3.00;81.90;;;;;;5016406;28;20108;-52
2021/04/06 07:15:48;;;;;;;5.88;1.80;;;2.90;82.00;;;;;;4995095;28;20049;-52
2021/04/06 07:18:18;;;;;;;11.23;2.22;;;2.80;82.60;;;;;;5008548;28;20048;-52
2021/04/06 07:20:50;;;;;;;9.27;1.77;;;2.70;82.90;;;;;;5017356;28;20077;-50
2021/04/06 07:23:38;;;;;;;6.65;1.80;;;2.70;82.60;;;;;;5014634;28;20044;-52
2021/04/06 07:26:16;;;;;;;9.93;2.38;;;2.70;82.90;;;;;;5019338;28;20114;-48
2021/04/06 07:28:42;;;;;;;6.13;1.52;;;2.70;83.00;;;;;;5016489;28;20168;-52
2021/04/06 07:31:10;;;;;;;10.38;1.73;;;2.80;83.00;;;;;;5026519;28;20046;-51
2021/04/06 07:33:39;;;;;;;9.02;2.00;;;3.00;82.90;;;;;;5013907;28;20045;-52
2021/04/06 07:36:07;;;;;;;8.30;1.70;;;3.10;83.10;;;;;;5011282;28;20052;-48
2021/04/06 07:38:55;;;;;;;7.68;2.40;;;3.20;82.90;;;;;;5016237;28;20045;-49
2021/04/06 07:41:24;;;;;;;12.35;2.17;;;3.40;82.90;;;;;;5019922;28;20053;-49
2021/04/06 07:43:51;;;;;;;9.45;1.90;;;3.60;82.70;;;;;;5025654;28;20049;-50
2021/04/06 07:46:35;;;;;;;9.05;1.83;;;3.70;81.70;;;;;;5025490;28;20049;-49
2021/04/06 07:49:22;;;;;;;14.40;2.65;;;3.90;81.10;;;;;;5028871;28;20157;-51
2021/04/06 07:51:50;;;;;;;13.23;2.90;;;4.10;80.80;;;;;;5020423;28;20507;-49
2021/04/06 07:54:21;;;;;;;11.48;2.30;;;4.30;81.00;;;;;;5021075;28;20402;-49
2021/04/06 07:56:50;;;;;;;13.30;3.15;;;4.50;80.50;;;;;;5022113;28;20057;-52
2021/04/06 07:59:19;;;;;;;11.20;4.15;;;4.50;79.10;;;;;;5025468;28;20037;-52
2021/04/06 08:01:55;;;;;;;14.07;2.45;;;4.20;77.50;;;;;;5036904;28;20049;-50
2021/04/06 08:04:21;;;;;;;13.75;3.03;;;3.80;79.90;;;;;;5018664;28;20398;-49
2021/04/06 08:06:52;;;;;;;13.43;2.20;;;3.50;81.70;;;;;;5023867;28;20049;-50
2021/04/06 08:12:16;;;;;;;11.25;2.83;;;3.10;84.60;;;;;;5016954;28;20046;-52
2021/04/06 08:14:53;;;;;;;9.50;2.00;;;3.00;86.10;;;;;;5023449;28;20520;-50
2021/04/06 08:17:27;;;;;;;11.00;2.38;;;2.90;86.50;;;;;;5022377;28;20196;-49
2021/04/06 08:19:55;;;;;;;14.00;2.38;;;3.00;86.80;;;;;;5021354;28;20240;-50
2021/04/06 08:22:25;;;;;;;10.80;2.20;;;3.00;86.60;;;;;;5017700;28;20044;-51
2021/04/06 08:25:10;;;;;;;15.50;2.67;;;3.00;86.80;;;;;;5027453;28;20104;-51
2021/04/06 08:27:36;;;;;;;8.57;2.28;;;2.90;86.90;;;;;;5026015;28;20150;-49
2021/04/06 08:30:26;;;;;;;16.50;2.10;;;2.90;87.10;;;;;;5021192;28;20053;-49
2021/04/06 08:32:58;;;;;;;9.07;2.20;;;3.00;87.20;;;;;;5028962;28;20083;-48
2021/04/06 08:38:20;;;;;;;7.38;2.30;;;3.10;86.90;;;;;;5019938;28;20120;-52
2021/04/06 08:41:04;;;;;;;7.15;1.58;;;3.40;87.10;;;;;;5024426;28;20452;-50
2021/04/06 08:43:54;;;;;;;7.43;1.90;;;3.60;86.50;;;;;;5024443;28;20049;-53
2021/04/06 08:46:40;;;;;;;8.98;1.67;;;3.80;86.10;;;;;;5025905;28;20084;-52
2021/04/06 08:49:39;;;;;;;5.93;1.70;;;4.00;85.90;;;;;;5023948;28;20045;-52
2021/04/06 08:52:11;;;;;;;10.10;2.00;;;4.10;85.60;;;;;;5018547;28;20078;-51
2021/04/06 08:54:37;;;;;;;8.30;2.13;;;4.30;85.10;;;;;;5024862;28;20382;-50
2021/04/06 08:57:05;;;;;;;8.93;1.80;;;4.50;85.00;;;;;;5025031;28;20050;-49
2021/04/06 08:59:35;;;;;;;10.55;1.95;;;4.70;83.70;;;;;;5027266;28;20454;-49
2021/04/06 09:02:01;;;;;;;10.55;1.80;;;4.60;82.70;;;;;;5024205;28;20049;-53
2021/04/06 09:04:30;;;;;;;13.15;1.92;;;4.50;83.30;;;;;;5021049;28;20350;-50
2021/04/06 09:06:56;;;;;;;5.28;1.45;;;4.40;83.20;;;;;;5024419;28;20041;-52
2021/04/06 09:09:26;;;;;;;9.35;2.10;;;4.20;83.20;;;;;;5019567;28;20057;-53
2021/04/06 09:11:54;;;;;;;7.72;1.50;;;4.10;83.50;;;;;;5015523;28;20107;-50
2021/04/06 09:14:21;;;;;;;10.38;2.03;;;3.90;83.10;;;;;;5022526;28;20060;-51
2021/04/06 09:16:51;;;;;;;7.93;1.77;;;3.80;83.40;;;;;;5031066;28;20041;-53
2021/04/06 09:19:17;;;;;;;6.28;1.90;;;3.60;84.00;;;;;;5014535;28;20061;-52
2021/04/06 09:22:05;;;;;;;14.30;2.00;;;3.70;85.20;;;;;;5012608;28;20052;-50
2021/04/06 09:24:32;;;;;;;9.43;2.05;;;3.90;85.70;;;;;;5015007;28;20042;-52
2021/04/06 09:26:59;;;;;;;6.90;1.42;;;4.20;85.80;;;;;;5013146;28;20034;-50
2021/04/06 09:29:37;;;;;;;7.78;1.92;;;4.40;85.40;;;;;;5029564;28;20136;-54
2021/04/06 09:32:06;;;;;;;11.18;1.85;;;4.60;84.00;;;;;;5024387;28;20449;-52
2021/04/06 09:34:38;;;;;;;7.57;1.90;;;4.70;83.20;;;;;;5024423;28;20500;-51
2021/04/06 09:37:10;;;;;;;9.73;1.90;;;4.90;81.80;;;;;;5029023;28;20044;-52
2021/04/06 09:39:39;;;;;;;8.90;1.60;;;5.00;82.10;;;;;;5018823;28;20046;-50
2021/04/06 09:42:06;;;;;;;9.43;1.98;;;5.20;81.70;;;;;;5023942;28;20490;-53
2021/04/06 09:44:36;;;;;;;8.80;1.65;;;5.40;80.00;;;;;;5028137;28;20538;-51
2021/04/06 09:47:24;;;;;;;12.73;1.80;;;5.40;78.10;;;;;;5021979;28;20038;-53
2021/04/06 09:49:54;;;;;;;8.20;2.58;;;5.40;77.60;;;;;;5015473;28;20422;-52
2021/04/06 09:52:28;;;;;;;9.45;1.55;;;5.30;74.60;;;;;;5024108;28;20485;-54
2021/04/06 09:55:09;;;;;;;7.85;1.80;;;5.00;76.70;;;;;;5022746;28;20107;-53
2021/04/06 09:57:37;;;;;;;11.93;1.75;;;4.70;77.90;;;;;;5024124;28;20123;-50
2021/04/06 10:00:11;;;;;;;5.05;1.48;;;4.60;77.50;;;;;;5016431;28;20433;-51
2021/04/06 10:02:37;;;;;;;7.50;1.90;;;4.40;79.40;;;;;;5021675;28;20091;-53
2021/04/06 10:05:04;;;;;;;6.53;2.17;;;4.40;80.40;;;;;;5020440;28;20049;-52
2021/04/06 10:07:35;;;;;;;4.32;1.35;;;4.30;80.00;;;;;;5009918;28;511854;-53
2021/04/06 10:10:10;;;;;;;8.35;1.80;;;4.40;81.20;;;;;;5024508;28;20085;-49
2021/04/06 10:12:36;;;;;;;1.73;1.02;;;4.50;81.00;;;;;;5027529;28;20567;-52
2021/04/06 10:15:02;;;;;;;3.45;1.10;;;4.30;79.50;;;;;;5015997;28;20506;-50
2021/04/06 10:17:39;;;;;;;6.53;1.27;;;4.00;81.20;;;;;;5015379;28;20112;-50
2021/04/06 10:20:18;;;;;;;3.67;1.50;;;3.70;82.00;;;;;;5026895;28;20041;-53
2021/04/06 10:22:48;;;;;;;5.38;1.05;;;3.60;84.10;;;;;;5029503;28;20041;-51
2021/04/06 10:25:16;;;;;;;3.75;0.90;;;3.50;84.60;;;;;;5013186;28;20406;-51
2021/04/06 10:27:47;;;;;;;5.45;1.17;;;3.40;85.10;;;;;;5023076;28;20041;-53
2021/04/06 10:30:17;;;;;;;3.40;1.00;;;3.40;84.60;;;;;;5024797;28;20075;-53
2021/04/06 10:32:47;;;;;;;1.95;0.82;;;3.30;84.00;;;;;;5028459;28;20384;-52
2021/04/06 10:35:26;;;;;;;2.83;0.80;;;3.30;83.80;;;;;;5023151;28;20426;-50
2021/04/06 10:37:57;;;;;;;4.38;0.85;;;3.20;84.20;;;;;;5015196;28;20058;-49
2021/04/06 10:40:26;;;;;;;6.70;1.23;;;3.30;84.30;;;;;;5021620;28;20037;-53
2021/04/06 10:42:55;;;;;;;5.15;1.00;;;2.90;83.40;;;;;;5020862;28;20099;-54
2021/04/06 10:45:23;;;;;;;6.70;1.17;;;3.30;83.90;;;;;;5014049;28;20030;-51
2021/04/06 10:48:14;;;;;;;5.93;0.95;;;3.40;84.00;;;;;;5011979;28;20038;-53
2021/04/06 10:50:49;;;;;;;6.43;1.45;;;3.80;85.20;;;;;;5016666;28;20100;-53
2021/04/06 10:53:30;;;;;;;7.45;1.45;;;4.10;84.90;;;;;;5018350;28;20037;-53
2021/04/06 10:56:17;;;;;;;10.40;1.77;;;4.30;84.10;;;;;;5020074;28;20196;-55
2021/04/06 10:58:57;;;;;;;8.65;1.50;;;4.50;82.70;;;;;;5017486;28;20537;-54
2021/04/06 11:01:35;;;;;;;9.27;1.70;;;4.60;79.70;;;;;;5022398;28;20034;-54
2021/04/06 11:04:10;;;;;;;7.65;1.73;;;4.60;77.90;;;;;;5017063;28;20048;-51
2021/04/06 11:06:38;;;;;;;9.38;1.90;;;4.60;77.00;;;;;;5018771;28;21450;-52
2021/04/06 11:09:21;;;;;;;7.10;1.83;;;4.60;78.70;;;;;;5019929;28;20045;-50
2021/04/06 11:11:49;;;;;;;9.30;1.42;;;4.30;79.00;;;;;;5020680;28;20082;-53
2021/04/06 11:14:17;;;;;;;6.95;1.58;;;4.20;79.90;;;;;;5018799;28;20034;-52
2021/04/06 11:16:44;;;;;;;8.40;1.77;;;4.00;80.70;;;;;;5014325;28;20046;-53
2021/04/06 11:19:22;;;;;;;10.85;1.70;;;4.00;81.50;;;;;;5024362;28;20033;-52
2021/04/06 11:21:50;;;;;;;9.13;1.98;;;4.20;82.60;;;;;;5021357;28;20091;-51
2021/04/06 11:24:18;;;;;;;9.88;1.77;;;4.40;83.10;;;;;;5019241;28;20383;-50
2021/04/06 11:26:43;;;;;;;8.10;1.58;;;4.70;82.70;;;;;;5016695;28;20217;-51
2021/04/06 11:29:15;;;;;;;9.70;1.73;;;4.90;82.30;;;;;;5012697;28;20562;-52
2021/04/06 11:31:43;;;;;;;7.70;1.58;;;5.20;82.20;;;;;;5012857;28;20038;-52
2021/04/06 11:34:09;;;;;;;10.13;1.85;;;5.50;81.80;;;;;;5021827;28;20494;-51
2021/04/06 11:36:36;;;;;;;8.02;1.73;;;5.70;79.60;;;;;;5013436;28;20041;-53
2021/04/06 11:39:07;;;;;;;13.73;1.77;;;6.00;77.90;;;;;;5012854;28;20129;-54
2021/04/06 11:41:34;;;;;;;5.63;1.75;;;6.20;77.00;;;;;;5016321;28;20499;-54
2021/04/06 11:44:00;;;;;;;6.95;1.52;;;6.30;72.90;;;;;;5024039;28;20067;-50
2021/04/06 11:46:26;;;;;;;9.10;1.65;;;5.80;69.30;;;;;;5029983;28;20038;-53
2021/04/06 11:48:52;;;;;;;7.45;1.50;;;5.30;69.80;;;;;;5025774;28;20033;-51
2021/04/06 11:51:18;;;;;;;6.55;1.40;;;4.80;71.70;;;;;;5019808;28;20042;-53
2021/04/06 11:53:44;;;;;;;10.32;1.85;;;4.40;75.00;;;;;;5017733;28;20053;-53
2021/04/06 11:56:11;;;;;;;9.60;1.83;;;4.00;76.80;;;;;;5021180;28;20049;-52
2021/04/06 11:58:36;;;;;;;6.65;1.60;;;3.80;77.80;;;;;;5016950;28;20136;-49
2021/04/06 12:01:02;;;;;;;6.80;1.67;;;3.60;78.50;;;;;;5024441;28;20136;-52
2021/04/06 12:03:28;;;;;;;12.35;1.80;;;3.40;79.40;;;;;;5026711;28;20041;-50
2021/04/06 12:05:54;;;;;;;7.68;1.30;;;3.30;80.20;;;;;;5022972;28;20167;-52
2021/04/06 12:08:20;;;;;;;11.75;1.73;;;3.10;81.20;;;;;;5027782;28;20033;-48
2021/04/06 12:10:46;;;;;;;9.20;1.58;;;3.00;82.20;;;;;;5022036;28;20440;-51
2021/04/06 12:13:13;;;;;;;8.73;1.85;;;3.00;81.90;;;;;;5015485;28;20045;-49
2021/04/06 12:15:38;;;;;;;9.30;1.80;;;3.00;81.90;;;;;;5021405;28;20052;-52
2021/04/06 12:18:05;;;;;;;9.40;1.73;;;3.00;81.90;;;;;;5026710;28;20495;-52
2021/04/06 12:20:31;;;;;;;8.63;1.60;;;3.20;81.90;;;;;;5024822;28;20067;-51
2021/04/06 12:22:57;;;;;;;8.15;1.60;;;3.30;81.50;;;;;;5026116;28;20494;-50
2021/04/06 12:25:23;;;;;;;6.57;1.63;;;3.40;80.70;;;;;;5021958;28;20048;-50
2021/04/06 12:27:48;;;;;;;6.32;1.05;;;3.50;80.50;;;;;;5027151;28;20049;-53
2021/04/06 12:30:15;;;;;;;4.78;1.40;;;3.70;80.30;;;;;;5028340;28;20556;-52
2021/04/06 12:32:41;;;;;;;4.85;0.98;;;3.90;79.90;;;;;;5019587;28;20053;-53
2021/04/06 12:35:09;;;;;;;8.65;1.40;;;4.20;79.40;;;;;;5028017;28;20489;-52
2021/04/06 12:37:36;;;;;;;8.82;1.42;;;4.40;78.50;;;;;;5023040;28;20489;-52
2021/04/06 12:40:03;;;;;;;6.00;1.10;;;4.70;78.30;;;;;;5018276;28;20092;-49
2021/04/06 12:42:29;;;;;;;5.65;1.50;;;5.00;77.80;;;;;;5024435;28;20056;-53
2021/04/06 12:44:54;;;;;;;9.05;1.85;;;5.20;74.50;;;;;;5029488;28;20057;-51
2021/04/06 12:47:20;;;;;;;9.32;1.50;;;5.40;74.30;;;;;;5029078;28;20037;-49
2021/04/06 12:49:46;;;;;;;8.23;1.60;;;5.60;73.20;;;;;;5029411;28;20042;-49
2021/04/06 12:52:11;;;;;;;11.43;1.50;;;5.80;71.40;;;;;;5025675;28;20060;-53
2021/04/06 12:54:37;;;;;;;8.10;1.40;;;6.00;70.80;;;;;;5018041;28;20109;-52
2021/04/06 12:57:03;;;;;;;8.85;1.40;;;6.10;69.30;;;;;;5016054;28;20038;-52
2021/04/06 12:59:29;;;;;;;7.00;1.70;;;6.20;69.50;;;;;;5014816;28;20049;-53
2021/04/06 13:01:55;;;;;;;5.63;1.58;;;6.10;69.90;;;;;;5015911;28;20037;-49
2021/04/06 13:04:20;;;;;;;8.27;1.90;;;6.10;67.70;;;;;;5014481;28;20629;-52
2021/04/06 13:06:46;;;;;;;7.43;1.40;;;5.90;65.90;;;;;;5015163;28;20117;-52
2021/04/06 13:09:12;;;;;;;8.95;1.50;;;5.90;66.60;;;;;;5016604;28;20076;-51
2021/04/06 13:11:37;;;;;;;10.23;1.73;;;6.00;66.10;;;;;;5019943;28;20037;-52